Time;durP1;ratioP1;P1;durP2;ratioP2;P2;SDS_P1;SDS_P2;PMS_P1;PMS_P2;Temp;Humidity;BMP_temperature;BMP_pressure;BME280_temperature;BME280_humidity;BME280_pressure;Samples;Min_cycle;Max_cycle;Signal;HPM_P1;HPM_P2
2022/02/22 00:00:11;;;;;;;30.48;15.58;;;;;;;5.87;57.53;99902.02;1684657;85;25735;-57
2022/02/22 00:02:46;;;;;;;25.08;13.45;;;;;;;5.80;57.52;99900.34;1695005;84;25534;-56
2022/02/22 00:05:14;;;;;;;25.92;14.13;;;;;;;5.66;57.42;99904.14;1684636;85;25445;-57
2022/02/22 00:07:42;;;;;;;24.07;14.40;;;;;;;5.58;57.78;99895.45;1695129;84;27365;-56
2022/02/22 00:10:12;;;;;;;27.58;14.95;;;;;;;5.49;57.55;99901.53;1691759;84;25708;-56
2022/02/22 00:12:39;;;;;;;26.15;15.80;;;;;;;5.42;57.60;99905.18;1694068;84;25766;-57
2022/02/22 00:15:08;;;;;;;28.95;15.20;;;;;;;5.33;57.89;99908.09;1693600;84;28004;-56
2022/02/22 00:17:38;;;;;;;26.55;14.63;;;;;;;5.27;58.08;99906.42;1694047;84;25551;-57
2022/02/22 00:20:07;;;;;;;28.20;14.80;;;;;;;5.22;58.43;99910.80;1693256;84;27502;-56
2022/02/22 00:22:34;;;;;;;30.90;16.12;;;;;;;5.16;58.37;99909.46;1693968;84;25497;-58
2022/02/22 00:25:04;;;;;;;30.55;15.95;;;;;;;5.12;58.43;99912.50;1693528;84;25506;-56
2022/02/22 00:27:31;;;;;;;30.82;16.20;;;;;;;5.07;58.48;99911.53;1693918;84;25822;-56
2022/02/22 00:29:58;;;;;;;29.82;15.75;;;;;;;5.04;58.51;99912.27;1693470;84;25738;-56
2022/02/22 00:32:24;;;;;;;28.80;14.60;;;;;;;5.03;58.45;99910.56;1693740;83;27865;-57
2022/02/22 00:34:51;;;;;;;28.60;15.05;;;;;;;4.97;58.55;99914.09;1693476;83;25744;-57
2022/02/22 00:37:18;;;;;;;32.90;16.32;;;;;;;4.93;58.50;99920.61;1693609;84;25641;-56
2022/02/22 00:39:45;;;;;;;25.50;14.73;;;;;;;4.88;58.81;99922.81;1697434;84;25803;-56
2022/02/22 00:42:12;;;;;;;24.07;14.23;;;;;;;4.83;58.84;99915.64;1699174;84;25741;-56
2022/02/22 00:44:39;;;;;;;34.78;15.70;;;;;;;4.81;58.78;99922.89;1697029;84;28153;-56
2022/02/22 00:47:06;;;;;;;30.45;14.55;;;;;;;4.78;58.81;99923.99;1693760;84;25688;-57
2022/02/22 00:49:33;;;;;;;30.00;15.38;;;;;;;4.74;58.69;99933.67;1693731;84;25723;-57
2022/02/22 00:52:01;;;;;;;26.20;15.48;;;;;;;4.70;58.95;99928.61;1693993;84;26473;-56
2022/02/22 00:54:28;;;;;;;31.17;15.35;;;;;;;4.67;59.04;99934.63;1693733;84;25794;-56
2022/02/22 00:56:55;;;;;;;28.67;15.65;;;;;;;4.63;59.62;99926.03;1693693;84;27499;-56
2022/02/22 00:59:22;;;;;;;26.68;14.60;;;;;;;4.60;59.30;99925.42;1693616;84;25721;-56
2022/02/22 01:01:49;;;;;;;24.43;15.48;;;;;;;4.57;60.54;99925.17;1693618;84;25724;-57
2022/02/22 01:04:16;;;;;;;28.52;14.87;;;;;;;4.51;60.16;99933.16;1693793;83;25804;-56
2022/02/22 01:06:42;;;;;;;25.77;15.18;;;;;;;4.47;60.45;99931.70;1693672;84;25751;-57
2022/02/22 01:09:10;;;;;;;23.32;15.25;;;;;;;4.46;60.10;99936.67;1692677;84;28171;-56
2022/02/22 01:11:37;;;;;;;25.05;13.83;;;;;;;4.46;60.30;99938.47;1688803;85;25800;-56
2022/02/22 01:14:04;;;;;;;24.47;14.20;;;;;;;4.48;60.78;99933.88;1688915;85;25720;-56
2022/02/22 01:16:31;;;;;;;25.32;13.85;;;;;;;4.48;60.67;99934.71;1663862;84;25811;-56
2022/02/22 01:18:58;;;;;;;24.20;14.73;;;;;;;4.50;60.86;99934.12;1642366;87;25529;-56
2022/02/22 01:21:25;;;;;;;21.73;14.38;;;;;;;4.53;61.26;99925.91;1642165;87;27510;-57
2022/02/22 01:23:52;;;;;;;25.27;14.33;;;;;;;4.56;60.98;99915.98;1642214;87;25798;-56
2022/02/22 01:26:19;;;;;;;24.80;13.60;;;;;;;4.58;61.01;99926.02;1642312;87;25685;-57
2022/02/22 01:28:46;;;;;;;32.55;14.83;;;;;;;4.60;60.96;99922.75;1642366;86;26606;-56
2022/02/22 01:31:12;;;;;;;25.23;13.60;;;;;;;4.61;61.00;99923.98;1642048;87;25846;-56
2022/02/22 01:33:39;;;;;;;29.80;14.25;;;;;;;4.59;61.26;99927.25;1642497;87;27513;-56
2022/02/22 01:36:07;;;;;;;26.90;13.83;;;;;;;4.57;61.03;99937.17;1642041;87;25794;-56
2022/02/22 01:38:34;;;;;;;27.55;14.95;;;;;;;4.53;60.81;99933.03;1652425;84;25825;-56
2022/02/22 01:41:01;;;;;;;25.65;14.28;;;;;;;4.49;60.61;99931.58;1703351;84;25913;-56
2022/02/22 01:43:29;;;;;;;28.50;14.65;;;;;;;4.48;60.41;99924.06;1703452;84;25450;-56
2022/02/22 01:45:58;;;;;;;30.72;14.65;;;;;;;4.42;60.02;99923.70;1699234;84;28200;-56
2022/02/22 01:48:25;;;;;;;27.02;14.28;;;;;;;4.34;59.95;99912.30;1703513;84;27223;-56
2022/02/22 01:50:52;;;;;;;28.92;13.62;;;;;;;4.29;59.92;99919.80;1703495;84;25727;-56
2022/02/22 01:53:19;;;;;;;32.85;15.78;;;;;;;4.22;59.83;99924.73;1703341;84;26467;-57
2022/02/22 01:55:45;;;;;;;30.92;14.78;;;;;;;4.18;59.94;99928.58;1703317;84;25769;-57
2022/02/22 01:58:12;;;;;;;24.43;15.83;;;;;;;4.13;59.83;99928.09;1703421;84;27511;-56
2022/02/22 02:00:43;;;;;;;29.67;16.40;;;;;;;4.05;59.81;99926.86;1703620;84;25803;-57
2022/02/22 02:03:09;;;;;;;27.22;14.40;;;;;;;3.97;59.89;99928.38;1703454;83;25735;-56
2022/02/22 02:05:36;;;;;;;24.72;14.80;;;;;;;3.85;59.68;99931.48;1703611;84;25735;-56
2022/02/22 02:08:04;;;;;;;31.00;15.08;;;;;;;3.72;59.82;99936.36;1703556;84;25556;-59
2022/02/22 02:10:31;;;;;;;25.52;16.15;;;;;;;3.66;60.32;99936.82;1699045;84;27148;-56
2022/02/22 02:12:58;;;;;;;32.63;16.75;;;;;;;3.56;59.99;99931.80;1696298;84;25517;-56
2022/02/22 02:15:25;;;;;;;29.15;15.23;;;;;;;3.48;60.01;99928.39;1696393;84;25803;-56
2022/02/22 02:17:52;;;;;;;30.60;14.30;;;;;;;3.40;60.24;99927.60;1696577;84;25854;-57
2022/02/22 02:20:19;;;;;;;23.73;13.53;;;;;;;3.34;60.64;99930.71;1696242;84;25740;-59
2022/02/22 02:22:46;;;;;;;23.55;13.43;;;;;;;3.27;60.65;99930.79;1696206;84;27456;-57
2022/02/22 02:25:14;;;;;;;30.92;14.78;;;;;;;3.25;61.71;99936.20;1696255;84;25751;-56
2022/02/22 02:27:42;;;;;;;26.30;13.70;;;;;;;3.25;61.43;99941.51;1696559;84;25497;-56
2022/02/22 02:30:11;;;;;;;24.00;14.20;;;;;;;3.26;61.82;99950.35;1696488;84;25746;-56
2022/02/22 02:32:39;;;;;;;29.85;13.78;;;;;;;3.26;62.12;99957.83;1696256;84;25731;-58
2022/02/22 02:35:08;;;;;;;24.23;14.47;;;;;;;3.30;61.98;99962.45;1696306;84;28041;-59
2022/02/22 02:37:40;;;;;;;30.68;14.45;;;;;;;3.36;62.08;99973.97;1696278;84;25664;-57
2022/02/22 02:40:10;;;;;;;25.65;14.53;;;;;;;3.35;61.93;99966.98;1694077;83;25725;-57
2022/02/22 02:42:42;;;;;;;21.77;13.20;;;;;;;3.39;62.29;99972.42;1693901;84;25752;-56
2022/02/22 02:45:11;;;;;;;27.10;14.43;;;;;;;3.41;62.17;99976.30;1692649;84;25704;-56
2022/02/22 02:47:38;;;;;;;28.25;15.80;;;;;;;3.38;61.99;99973.88;1696524;84;27438;-56
2022/02/22 02:50:09;;;;;;;24.63;12.75;;;;;;;3.35;61.98;99987.38;1757771;81;25484;-56
2022/02/22 02:52:36;;;;;;;23.12;14.18;;;;;;;3.33;62.12;99986.63;1758047;81;25722;-56
2022/02/22 02:55:05;;;;;;;29.45;15.90;;;;;;;3.27;61.77;99992.77;1758124;81;25810;-56
2022/02/22 02:57:31;;;;;;;31.87;15.95;;;;;;;3.27;61.76;100003.89;1758389;81;25526;-56
2022/02/22 02:59:58;;;;;;;25.65;14.38;;;;;;;3.26;61.73;100008.34;1757944;81;27465;-56
2022/02/22 03:02:25;;;;;;;26.52;15.00;;;;;;;3.23;61.88;100010.37;1758057;81;25428;-56
2022/02/22 03:04:52;;;;;;;29.80;15.68;;;;;;;3.18;61.57;100001.88;1758127;81;25745;-56
2022/02/22 03:07:19;;;;;;;26.95;14.78;;;;;;;3.14;61.55;100010.52;1758079;81;26423;-56
2022/02/22 03:09:46;;;;;;;23.65;14.50;;;;;;;3.11;61.78;100012.08;1758043;81;25695;-58
2022/02/22 03:12:13;;;;;;;28.67;14.25;;;;;;;3.06;61.46;100011.53;1757953;81;27462;-58
2022/02/22 03:14:39;;;;;;;35.43;16.45;;;;;;;3.03;61.70;100019.25;1758013;81;25722;-56
2022/02/22 03:17:06;;;;;;;25.50;14.87;;;;;;;3.04;61.59;100016.13;1758374;81;25677;-57
2022/02/22 03:19:33;;;;;;;33.80;16.45;;;;;;;3.04;61.98;100028.92;1758105;81;25802;-56
2022/02/22 03:22:00;;;;;;;23.73;14.68;;;;;;;3.05;62.08;100030.63;1757963;81;25708;-56
2022/02/22 03:24:29;;;;;;;26.62;13.95;;;;;;;3.10;62.24;100028.48;1758074;81;27462;-56
2022/02/22 03:26:56;;;;;;;25.20;15.00;;;;;;;3.17;62.47;100033.40;1757945;81;25718;-57
2022/02/22 03:29:22;;;;;;;26.27;15.93;;;;;;;3.23;62.60;100035.62;1757903;81;25829;-56
2022/02/22 03:31:49;;;;;;;24.60;15.05;;;;;;;3.26;62.65;100027.44;1754047;81;25796;-57
2022/02/22 03:34:16;;;;;;;30.35;15.40;;;;;;;3.33;62.84;100036.69;1758058;81;25729;-56
2022/02/22 03:36:44;;;;;;;27.35;14.90;;;;;;;3.40;62.87;100029.13;1758052;81;27466;-57
2022/02/22 03:39:11;;;;;;;28.05;14.38;;;;;;;3.48;63.00;100036.55;1760081;81;25729;-56
2022/02/22 03:41:38;;;;;;;30.32;14.87;;;;;;;3.52;63.15;100039.38;1763314;81;25617;-56
2022/02/22 03:44:05;;;;;;;28.40;15.70;;;;;;;3.56;63.19;100045.70;1763556;81;25857;-57
2022/02/22 03:46:32;;;;;;;27.40;15.60;;;;;;;3.59;63.03;100041.47;1767489;81;25684;-58
2022/02/22 03:48:59;;;;;;;25.12;14.10;;;;;;;3.59;62.87;100049.45;1770978;81;29570;-57
2022/02/22 03:51:26;;;;;;;28.05;14.80;;;;;;;3.62;62.77;100045.74;1770925;81;25831;-58
2022/02/22 03:53:53;;;;;;;30.88;15.20;;;;;;;3.65;62.59;100048.16;1770957;81;25533;-57
2022/02/22 03:56:20;;;;;;;27.05;14.65;;;;;;;3.66;62.61;100053.86;1770986;81;27927;-57
2022/02/22 03:58:46;;;;;;;26.27;15.35;;;;;;;3.67;62.42;100056.89;1770933;81;25709;-57
2022/02/22 04:01:13;;;;;;;30.25;16.60;;;;;;;3.67;62.41;100053.39;1771127;81;27379;-56
2022/02/22 04:03:40;;;;;;;27.45;14.75;;;;;;;3.68;62.35;100053.28;1771077;81;25732;-57
2022/02/22 04:06:07;;;;;;;30.88;16.32;;;;;;;3.68;62.35;100059.06;1771159;81;25789;-57
2022/02/22 04:08:34;;;;;;;30.97;16.10;;;;;;;3.66;62.31;100054.35;1770933;81;25866;-57
2022/02/22 04:11:01;;;;;;;27.82;15.32;;;;;;;3.63;62.11;100054.06;1764923;81;25744;-57
2022/02/22 04:13:28;;;;;;;36.25;16.52;;;;;;;3.64;62.14;100060.25;1760485;81;28157;-56
2022/02/22 04:15:55;;;;;;;30.50;16.15;;;;;;;3.63;62.20;100059.88;1760836;81;25818;-56
2022/02/22 04:18:21;;;;;;;29.37;16.20;;;;;;;3.58;62.18;100050.89;1760415;81;25824;-57
2022/02/22 04:20:48;;;;;;;33.02;15.72;;;;;;;3.55;62.41;100053.77;1760242;81;25781;-57
2022/02/22 04:23:15;;;;;;;25.23;14.80;;;;;;;3.51;62.35;100053.13;1760545;81;25797;-57
2022/02/22 04:25:42;;;;;;;25.45;14.87;;;;;;;3.49;62.71;100055.53;1760416;81;27439;-56
2022/02/22 04:28:09;;;;;;;30.68;16.93;;;;;;;3.48;62.93;100055.16;1760306;81;25757;-57
2022/02/22 04:30:36;;;;;;;26.80;16.93;;;;;;;3.49;62.95;100064.37;1760717;81;25916;-57
2022/02/22 04:33:02;;;;;;;28.62;16.57;;;;;;;3.51;62.87;100066.92;1760463;81;25815;-56
2022/02/22 04:35:30;;;;;;;30.10;15.85;;;;;;;3.50;63.22;100059.41;1760812;80;25523;-57
2022/02/22 04:37:57;;;;;;;35.90;17.05;;;;;;;3.50;63.22;100062.06;1760254;81;29684;-56
2022/02/22 04:40:25;;;;;;;37.05;18.62;;;;;;;3.48;63.30;100070.66;1737353;81;25465;-57
2022/02/22 04:42:53;;;;;;;30.00;17.00;;;;;;;3.50;63.50;100058.57;1735130;82;25656;-56
2022/02/22 04:45:20;;;;;;;32.45;15.88;;;;;;;3.54;63.75;100055.59;1743892;81;25857;-56
2022/02/22 04:47:47;;;;;;;31.40;16.50;;;;;;;3.60;64.15;100056.97;1766000;81;25774;-57
2022/02/22 04:50:21;;;;;;;37.60;17.40;;;;;;;3.59;64.17;100054.77;1765986;81;27580;-57
2022/02/22 04:52:44;;;;;;;33.78;16.40;;;;;;;3.63;64.16;100069.19;1764893;81;25690;-57
2022/02/22 04:55:11;;;;;;;42.48;17.57;;;;;;;3.71;64.40;100074.81;1765946;81;25646;-58
2022/02/22 04:57:38;;;;;;;46.08;17.00;;;;;;;3.75;64.22;100078.47;1765814;81;25776;-57
2022/02/22 05:00:12;;;;;;;43.00;20.72;;;;;;;3.85;64.31;100082.68;1714999;81;25629;-57
2022/02/22 05:02:39;;;;;;;71.87;35.43;;;;;;;3.95;64.49;100097.48;1765819;81;28310;-58
2022/02/22 05:05:08;;;;;;;40.30;20.25;;;;;;;4.04;64.62;100098.16;1765610;81;25758;-57
2022/02/22 05:07:35;;;;;;;47.75;23.12;;;;;;;4.17;64.42;100102.11;1765834;81;25776;-57
2022/02/22 05:10:03;;;;;;;47.75;22.55;;;;;;;4.28;64.54;100103.98;1766321;80;26309;-57
2022/02/22 05:12:30;;;;;;;48.38;22.15;;;;;;;4.36;64.53;100117.58;1763359;81;25860;-57
2022/02/22 05:14:56;;;;;;;55.98;23.95;;;;;;;4.36;64.43;100120.74;1763496;81;27440;-57
2022/02/22 05:17:23;;;;;;;46.70;24.07;;;;;;;4.34;64.37;100127.98;1763391;81;25926;-57
2022/02/22 05:19:50;;;;;;;48.42;21.23;;;;;;;4.31;64.43;100142.38;1763091;81;25476;-57
2022/02/22 05:22:18;;;;;;;47.58;21.45;;;;;;;4.32;64.62;100152.08;1763315;81;25781;-57
2022/02/22 05:24:44;;;;;;;42.33;22.20;;;;;;;4.33;64.22;100149.78;1763615;81;25661;-57
2022/02/22 05:27:12;;;;;;;44.53;21.55;;;;;;;4.42;63.96;100144.75;1763420;81;27479;-58
2022/02/22 05:29:39;;;;;;;45.38;21.07;;;;;;;4.46;63.73;100144.88;1763309;81;25793;-57
2022/02/22 05:32:08;;;;;;;40.98;20.35;;;;;;;4.53;63.64;100154.11;1763962;81;25689;-57
2022/02/22 05:34:36;;;;;;;46.35;22.30;;;;;;;4.57;63.82;100160.93;1763626;81;25787;-56
2022/02/22 05:37:04;;;;;;;50.10;20.88;;;;;;;4.58;63.44;100163.09;1763646;81;25726;-57
2022/02/22 05:39:32;;;;;;;44.30;23.12;;;;;;;4.61;63.38;100162.89;1763824;81;27414;-57
2022/02/22 05:41:59;;;;;;;44.67;19.48;;;;;;;4.63;63.49;100163.14;1763496;81;25781;-57
2022/02/22 05:44:26;;;;;;;53.42;21.85;;;;;;;4.67;63.26;100165.95;1763431;81;25737;-57
2022/02/22 05:46:53;;;;;;;39.90;20.85;;;;;;;4.72;63.11;100170.08;1775434;80;26496;-57
2022/02/22 05:50:25;;;;;;;44.08;22.15;;;;;;;4.74;63.20;100173.48;1777038;80;25774;-57
2022/02/22 05:52:53;;;;;;;54.42;25.32;;;;;;;4.76;63.49;100178.23;1714485;81;27473;-58
2022/02/22 05:55:20;;;;;;;44.42;23.20;;;;;;;4.80;63.20;100183.69;1707859;84;26540;-57
2022/02/22 05:57:51;;;;;;;49.25;20.95;;;;;;;4.81;63.14;100175.59;1707861;84;25810;-57
2022/02/22 06:00:19;;;;;;;41.23;20.70;;;;;;;4.90;63.02;100171.88;1708209;84;25812;-57
2022/02/22 06:02:47;;;;;;;54.10;21.05;;;;;;;4.94;62.86;100178.20;1707981;84;25641;-57
2022/02/22 06:05:13;;;;;;;41.25;20.35;;;;;;;4.98;62.88;100186.31;1707891;84;28134;-57
2022/02/22 06:07:41;;;;;;;49.75;24.15;;;;;;;5.05;63.13;100188.55;1708105;84;25854;-57
2022/02/22 06:10:09;;;;;;;67.72;23.05;;;;;;;5.09;62.90;100182.00;1707925;84;25499;-57
2022/02/22 06:12:36;;;;;;;66.07;29.32;;;;;;;5.13;63.27;100186.16;1695765;84;26636;-57
2022/02/22 06:15:05;;;;;;;44.55;23.15;;;;;;;5.14;63.09;100197.19;1694825;83;25718;-57
2022/02/22 06:17:43;;;;;;;45.65;24.77;;;;;;;5.16;63.10;100208.56;1694852;84;26859;-57
2022/02/22 06:20:12;;;;;;;49.53;22.10;;;;;;;5.22;63.39;100212.59;1695055;83;25631;-57
2022/02/22 06:22:40;;;;;;;49.48;22.48;;;;;;;5.31;63.71;100214.56;1695066;83;25792;-57
2022/02/22 06:25:10;;;;;;;44.67;19.85;;;;;;;5.43;63.70;100220.78;1694752;83;26399;-58
2022/02/22 06:27:52;;;;;;;52.83;21.57;;;;;;;5.56;63.85;100227.40;1697286;83;25709;-58
2022/02/22 06:30:21;;;;;;;39.55;19.70;;;;;;;5.67;63.71;100230.56;1695738;83;27458;-57
2022/02/22 06:32:51;;;;;;;40.83;19.70;;;;;;;5.79;64.06;100238.48;1695271;83;25751;-58
2022/02/22 06:35:20;;;;;;;28.87;15.50;;;;;;;5.90;64.06;100237.64;1694620;83;25804;-58
2022/02/22 06:37:47;;;;;;;39.33;16.70;;;;;;;6.07;63.90;100236.36;1695657;83;25812;-57
2022/02/22 06:40:15;;;;;;;37.23;15.68;;;;;;;6.15;63.63;100238.91;1753244;81;25837;-56
2022/02/22 06:42:42;;;;;;;26.07;14.83;;;;;;;6.27;63.38;100232.62;1760410;81;28134;-57
2022/02/22 06:45:09;;;;;;;28.07;14.18;;;;;;;6.32;63.13;100239.77;1757784;80;25685;-58
2022/02/22 06:47:39;;;;;;;34.33;14.98;;;;;;;6.34;62.85;100249.85;1760372;81;25773;-57
2022/02/22 06:50:09;;;;;;;30.82;16.42;;;;;;;6.36;62.72;100257.73;1760548;80;25785;-57
2022/02/22 06:52:36;;;;;;;31.45;13.58;;;;;;;6.41;62.65;100260.87;1760938;80;25733;-57
2022/02/22 06:55:05;;;;;;;34.98;14.73;;;;;;;6.45;62.58;100261.01;1761095;80;28223;-57
2022/02/22 06:57:33;;;;;;;25.85;13.53;;;;;;;6.42;62.43;100260.78;1759651;81;25749;-57
2022/02/22 07:00:00;;;;;;;28.52;12.93;;;;;;;6.52;62.39;100270.73;1760551;80;25516;-57
2022/02/22 07:02:27;;;;;;;27.70;13.90;;;;;;;6.57;62.21;100268.53;1760483;81;25797;-57
2022/02/22 07:04:54;;;;;;;30.45;14.23;;;;;;;6.57;62.41;100270.73;1760769;81;25437;-57
2022/02/22 07:07:21;;;;;;;24.90;11.85;;;;;;;6.55;62.29;100279.35;1760125;81;27538;-58
2022/02/22 07:09:47;;;;;;;24.20;11.43;;;;;;;6.55;62.20;100286.03;1760453;81;25714;-57
2022/02/22 07:12:14;;;;;;;25.48;11.97;;;;;;;6.53;62.45;100287.97;1758925;81;25487;-57
2022/02/22 07:14:42;;;;;;;25.35;13.35;;;;;;;6.51;62.63;100293.91;1758045;81;26450;-57
2022/02/22 07:17:10;;;;;;;24.95;12.35;;;;;;;6.51;62.77;100295.75;1758050;81;25766;-57
2022/02/22 07:19:37;;;;;;;22.20;12.43;;;;;;;6.50;62.87;100299.39;1758150;81;27369;-57
2022/02/22 07:22:05;;;;;;;27.02;12.53;;;;;;;6.50;62.77;100309.58;1757947;81;25879;-57
2022/02/22 07:24:32;;;;;;;28.00;12.85;;;;;;;6.55;62.57;100314.56;1758090;81;25651;-57
2022/02/22 07:26:59;;;;;;;30.85;13.75;;;;;;;6.62;62.46;100317.14;1758013;81;25852;-58
2022/02/22 07:29:26;;;;;;;29.87;12.60;;;;;;;6.68;62.40;100319.81;1758094;81;25693;-56
2022/02/22 07:31:54;;;;;;;35.85;11.95;;;;;;;6.70;62.63;100319.18;1757908;81;27450;-57
2022/02/22 07:34:21;;;;;;;23.38;11.40;;;;;;;6.70;62.58;100321.86;1757721;81;25776;-57
2022/02/22 07:36:48;;;;;;;23.12;10.48;;;;;;;6.71;62.68;100321.75;1757994;81;25740;-56
2022/02/22 07:39:15;;;;;;;19.75;9.88;;;;;;;6.79;62.59;100327.80;1754802;81;25786;-57
2022/02/22 07:41:42;;;;;;;21.48;10.05;;;;;;;6.84;62.54;100326.97;1750591;82;25681;-57
2022/02/22 07:44:09;;;;;;;21.05;9.25;;;;;;;6.89;62.40;100332.78;1750563;82;27457;-57
2022/02/22 07:46:35;;;;;;;13.50;7.20;;;;;;;6.98;62.58;100327.67;1748758;82;27280;-56
2022/02/22 07:49:03;;;;;;;13.95;6.97;;;;;;;7.05;62.55;100330.20;1750272;82;25711;-56
2022/02/22 07:51:30;;;;;;;16.20;7.17;;;;;;;7.12;62.64;100332.77;1750370;82;25803;-57
2022/02/22 07:53:56;;;;;;;14.03;7.28;;;;;;;7.17;62.55;100341.25;1701915;84;25907;-57
2022/02/22 07:56:23;;;;;;;15.88;7.62;;;;;;;7.17;62.54;100338.58;1702059;84;28178;-56
2022/02/22 07:58:50;;;;;;;13.60;7.47;;;;;;;7.24;62.71;100340.75;1701684;83;25656;-56
2022/02/22 08:01:16;;;;;;;13.03;7.30;;;;;;;7.25;62.66;100347.33;1701995;83;25725;-57
2022/02/22 08:03:44;;;;;;;12.63;6.37;;;;;;;7.28;62.44;100351.58;1701970;83;26446;-57
2022/02/22 08:06:12;;;;;;;10.10;5.72;;;;;;;7.33;62.27;100360.06;1701987;83;26357;-56
2022/02/22 08:08:41;;;;;;;17.42;6.45;;;;;;;7.31;61.48;100357.99;1702041;83;27028;-57
2022/02/22 08:11:08;;;;;;;14.93;5.50;;;;;;;7.32;61.27;100357.02;1701698;83;25923;-57
2022/02/22 08:13:35;;;;;;;9.35;5.87;;;;;;;7.35;61.01;100359.45;1702025;84;25755;-57
2022/02/22 08:16:02;;;;;;;10.18;4.75;;;;;;;7.42;60.67;100355.30;1701815;84;26467;-56
2022/02/22 08:18:30;;;;;;;11.00;5.85;;;;;;;7.46;60.61;100361.24;1702035;83;25818;-57
2022/02/22 08:20:57;;;;;;;9.70;5.17;;;;;;;7.53;60.43;100358.41;1701870;84;27451;-58
2022/02/22 08:23:25;;;;;;;10.00;5.40;;;;;;;7.64;60.29;100357.55;1701912;84;25645;-56
2022/02/22 08:25:52;;;;;;;7.67;5.15;;;;;;;7.76;59.98;100359.19;1702208;83;25774;-57
2022/02/22 08:28:19;;;;;;;9.05;5.75;;;;;;;7.88;59.63;100360.02;1701969;83;26517;-57
2022/02/22 08:30:46;;;;;;;11.12;5.83;;;;;;;8.01;59.42;100358.95;1702000;83;25730;-56
2022/02/22 08:33:12;;;;;;;11.57;5.53;;;;;;;8.09;59.37;100367.19;1701943;83;27475;-57
2022/02/22 08:35:39;;;;;;;8.45;5.60;;;;;;;8.25;59.31;100369.42;1701989;84;25805;-56
2022/02/22 08:38:06;;;;;;;11.15;6.17;;;;;;;8.37;59.20;100369.73;1702159;84;26108;-56
2022/02/22 08:40:33;;;;;;;9.68;6.47;;;;;;;8.46;59.20;100378.31;1701911;83;25845;-57
2022/02/22 08:43:00;;;;;;;11.70;5.67;;;;;;;8.53;58.99;100375.97;1702413;83;25618;-56
2022/02/22 08:45:27;;;;;;;11.08;5.72;;;;;;;8.59;58.82;100378.14;1709265;83;27473;-56
2022/02/22 08:47:55;;;;;;;11.68;5.80;;;;;;;8.60;58.85;100381.18;1695625;84;25803;-56
2022/02/22 08:50:23;;;;;;;11.40;6.67;;;;;;;8.66;58.73;100385.13;1695344;84;25727;-56
2022/02/22 08:52:51;;;;;;;15.00;6.10;;;;;;;8.67;58.32;100389.52;1695654;84;25783;-57
2022/02/22 08:55:17;;;;;;;12.73;7.03;;;;;;;8.68;58.39;100391.72;1695372;84;25852;-57
2022/02/22 08:57:44;;;;;;;15.93;7.20;;;;;;;8.67;58.42;100400.24;1694897;84;27493;-56
2022/02/22 09:00:14;;;;;;;12.23;7.05;;;;;;;8.74;58.63;100398.72;1695132;84;25732;-56
2022/02/22 09:02:41;;;;;;;12.63;6.58;;;;;;;8.74;58.21;100399.23;1695885;84;25731;-56
2022/02/22 09:05:10;;;;;;;11.35;6.12;;;;;;;8.78;58.52;100406.03;1695135;84;25779;-56
2022/02/22 09:07:37;;;;;;;14.05;7.15;;;;;;;8.84;58.72;100408.17;1695878;84;25744;-57
2022/02/22 09:10:06;;;;;;;11.95;6.28;;;;;;;8.89;58.99;100407.27;1695400;84;28405;-57
2022/02/22 09:12:34;;;;;;;13.75;6.35;;;;;;;8.91;59.23;100410.67;1696409;84;25675;-57
2022/02/22 09:15:01;;;;;;;9.73;6.00;;;;;;;8.92;59.23;100410.16;1697531;84;25512;-58
2022/02/22 09:17:30;;;;;;;12.50;6.22;;;;;;;8.97;59.39;100420.02;1697431;84;26583;-57
2022/02/22 09:19:58;;;;;;;10.50;6.33;;;;;;;9.03;59.59;100415.95;1691585;84;25767;-57
2022/02/22 09:22:25;;;;;;;13.50;7.50;;;;;;;9.12;59.60;100425.02;1697161;84;27468;-57
2022/02/22 09:24:52;;;;;;;10.15;6.25;;;;;;;9.26;59.58;100417.08;1697637;84;25650;-57
2022/02/22 09:27:19;;;;;;;10.95;6.40;;;;;;;9.40;59.48;100423.43;1681045;84;25861;-57
2022/02/22 09:29:46;;;;;;;13.35;5.40;;;;;;;9.59;59.18;100421.27;1703854;84;25786;-59
2022/02/22 09:32:13;;;;;;;9.48;5.45;;;;;;;9.94;58.47;100428.47;1704197;84;25688;-56
2022/02/22 09:34:40;;;;;;;15.88;5.28;;;;;;;10.37;57.05;100420.48;1704034;84;28157;-57
2022/02/22 09:37:07;;;;;;;8.40;5.28;;;;;;;10.51;56.18;100420.53;1703965;84;25539;-57
2022/02/22 09:39:35;;;;;;;11.33;4.92;;;;;;;10.82;54.86;100425.68;1702550;84;25532;-57
2022/02/22 09:42:07;;;;;;;8.83;5.40;;;;;;;10.72;54.95;100425.72;1675600;85;25762;-57
2022/02/22 09:44:39;;;;;;;8.38;4.90;;;;;;;10.55;54.71;100435.38;1703166;83;25769;-59
2022/02/22 09:47:08;;;;;;;9.05;4.90;;;;;;;10.37;54.58;100427.20;1675879;85;27533;-57
2022/02/22 09:49:36;;;;;;;8.95;5.25;;;;;;;10.26;54.91;100428.19;1704013;83;25537;-57
2022/02/22 09:52:04;;;;;;;12.43;5.67;;;;;;;10.09;55.07;100435.59;1675411;85;25802;-57
2022/02/22 09:54:33;;;;;;;10.18;5.10;;;;;;;9.93;55.33;100437.00;1703907;83;25794;-57
2022/02/22 09:57:00;;;;;;;13.40;5.22;;;;;;;9.71;55.43;100429.58;1675918;84;25543;-57
2022/02/22 09:59:27;;;;;;;9.48;5.33;;;;;;;9.57;55.60;100438.52;1703964;83;28143;-58
2022/02/22 10:01:56;;;;;;;8.13;4.47;;;;;;;9.35;55.74;100438.61;1675280;85;25494;-58
2022/02/22 10:04:24;;;;;;;7.80;4.70;;;;;;;9.12;55.83;100439.77;1661411;84;25886;-57
2022/02/22 10:07:03;;;;;;;12.58;4.70;;;;;;;8.96;56.18;100436.27;1647003;87;25827;-57
2022/02/22 10:09:30;;;;;;;11.40;5.08;;;;;;;8.86;56.41;100442.91;1677037;83;25647;-57
2022/02/22 10:11:57;;;;;;;8.68;4.42;;;;;;;8.82;56.65;100448.19;1675135;85;28261;-57
2022/02/22 10:14:32;;;;;;;9.13;5.00;;;;;;;8.77;56.85;100449.42;1666971;86;25711;-58
2022/02/22 10:16:59;;;;;;;9.08;4.30;;;;;;;8.75;56.95;100445.19;1667087;85;26412;-59
2022/02/22 10:19:29;;;;;;;9.90;4.60;;;;;;;8.68;56.94;100444.02;1667004;86;25801;-57
2022/02/22 10:21:57;;;;;;;9.33;4.95;;;;;;;8.67;57.09;100432.92;1667233;86;25828;-57
2022/02/22 10:24:28;;;;;;;11.80;7.10;;;;;;;8.63;56.86;100436.37;1667028;86;27644;-57
2022/02/22 10:27:06;;;;;;;7.97;5.15;;;;;;;8.56;56.74;100444.08;1667097;86;25729;-57
2022/02/22 10:29:36;;;;;;;8.35;4.15;;;;;;;8.55;56.79;100439.70;1666974;86;25821;-58
2022/02/22 10:32:14;;;;;;;7.60;4.25;;;;;;;8.60;56.76;100441.98;1666822;85;26371;-58
2022/02/22 10:34:42;;;;;;;7.47;4.17;;;;;;;8.59;56.54;100442.48;1666946;85;25789;-58
2022/02/22 10:37:08;;;;;;;8.13;4.30;;;;;;;8.60;56.81;100449.55;1667026;86;27489;-57
2022/02/22 10:39:35;;;;;;;10.43;5.00;;;;;;;8.64;56.96;100442.09;1703796;82;25826;-57
2022/02/22 10:42:04;;;;;;;8.93;4.87;;;;;;;8.72;56.89;100447.64;1700247;83;25714;-58
2022/02/22 10:44:39;;;;;;;13.38;6.40;;;;;;;8.84;56.78;100446.20;1708198;83;25740;-57
2022/02/22 10:47:19;;;;;;;12.80;5.65;;;;;;;9.03;56.83;100448.16;1675069;85;25543;-57
2022/02/22 10:49:49;;;;;;;9.60;5.28;;;;;;;9.31;56.64;100451.09;1694860;83;27634;-57
2022/02/22 10:52:16;;;;;;;10.80;5.55;;;;;;;9.56;55.84;100453.77;1694924;84;26221;-56
2022/02/22 10:54:42;;;;;;;11.08;5.75;;;;;;;9.71;55.82;100449.72;1695187;84;26339;-56
2022/02/22 10:57:10;;;;;;;7.42;4.58;;;;;;;9.83;55.00;100446.89;1695032;84;26540;-57
2022/02/22 10:59:37;;;;;;;9.48;4.72;;;;;;;9.94;54.76;100455.34;1694672;84;25853;-57
2022/02/22 11:02:04;;;;;;;6.35;3.72;;;;;;;9.99;54.65;100452.59;1695002;84;27530;-58
2022/02/22 11:04:33;;;;;;;8.15;4.25;;;;;;;10.08;54.70;100458.94;1694859;83;25784;-57
2022/02/22 11:07:00;;;;;;;7.70;3.92;;;;;;;10.16;54.65;100454.22;1695106;84;25749;-56
2022/02/22 11:09:28;;;;;;;8.88;3.90;;;;;;;10.23;54.10;100458.03;1695043;83;25991;-56
2022/02/22 11:12:08;;;;;;;9.03;4.50;;;;;;;10.30;53.91;100453.78;1695269;84;25801;-57
2022/02/22 11:14:36;;;;;;;10.15;3.70;;;;;;;10.46;53.64;100452.38;1695238;84;28616;-57
2022/02/22 11:17:26;;;;;;;7.00;3.15;;;;;;;10.68;53.32;100455.75;1694603;83;25755;-57
2022/02/22 11:19:52;;;;;;;9.38;3.67;;;;;;;10.98;52.37;100449.80;1693803;83;26020;-58
2022/02/22 11:22:26;;;;;;;8.30;3.20;;;;;;;11.08;51.73;100452.80;1694763;84;25807;-57
2022/02/22 11:25:00;;;;;;;5.58;3.10;;;;;;;11.19;50.89;100453.62;1694881;84;25822;-56